sensor_id;sensor_type;location;lat;lon;timestamp;P1;durP1;ratioP1;P2;durP2;ratioP2
37303;SDS011;23188;51.188;16.374;2024-01-30T00:02:07;9.80;;;6.90;;
37303;SDS011;23188;51.188;16.374;2024-01-30T00:06:11;11.70;;;7.80;;
37303;SDS011;23188;51.188;16.374;2024-01-30T00:10:14;11.70;;;6.80;;
37303;SDS011;23188;51.188;16.374;2024-01-30T00:14:17;16.20;;;7.20;;
37303;SDS011;23188;51.188;16.374;2024-01-30T00:18:21;11.10;;;6.70;;
37303;SDS011;23188;51.188;16.374;2024-01-30T00:22:24;10.60;;;7.10;;
37303;SDS011;23188;51.188;16.374;2024-01-30T00:26:27;13.10;;;7.30;;
37303;SDS011;23188;51.188;16.374;2024-01-30T00:30:30;11.10;;;7.50;;
37303;SDS011;23188;51.188;16.374;2024-01-30T00:34:33;17.70;;;8.50;;
37303;SDS011;23188;51.188;16.374;2024-01-30T00:38:37;11.70;;;7.00;;
37303;SDS011;23188;51.188;16.374;2024-01-30T00:42:44;11.50;;;7.90;;
37303;SDS011;23188;51.188;16.374;2024-01-30T00:46:47;10.60;;;6.70;;
37303;SDS011;23188;51.188;16.374;2024-01-30T00:50:50;13.20;;;7.10;;
37303;SDS011;23188;51.188;16.374;2024-01-30T00:54:54;10.00;;;6.50;;
37303;SDS011;23188;51.188;16.374;2024-01-30T00:58:57;11.40;;;7.80;;
37303;SDS011;23188;51.188;16.374;2024-01-30T01:03:00;13.50;;;9.30;;
37303;SDS011;23188;51.188;16.374;2024-01-30T01:07:04;15.60;;;9.40;;
37303;SDS011;23188;51.188;16.374;2024-01-30T01:11:07;12.70;;;7.50;;
37303;SDS011;23188;51.188;16.374;2024-01-30T01:15:10;12.10;;;7.40;;
37303;SDS011;23188;51.188;16.374;2024-01-30T01:19:14;13.30;;;7.80;;
37303;SDS011;23188;51.188;16.374;2024-01-30T01:23:17;10.30;;;6.90;;
37303;SDS011;23188;51.188;16.374;2024-01-30T01:27:20;8.10;;;6.70;;
37303;SDS011;23188;51.188;16.374;2024-01-30T01:31:23;8.00;;;7.00;;
37303;SDS011;23188;51.188;16.374;2024-01-30T01:35:27;9.30;;;6.40;;
37303;SDS011;23188;51.188;16.374;2024-01-30T01:39:31;12.20;;;7.40;;
37303;SDS011;23188;51.188;16.374;2024-01-30T01:43:34;10.20;;;7.20;;
37303;SDS011;23188;51.188;16.374;2024-01-30T01:47:37;12.50;;;7.30;;
37303;SDS011;23188;51.188;16.374;2024-01-30T01:51:41;9.00;;;7.70;;
37303;SDS011;23188;51.188;16.374;2024-01-30T01:55:47;11.70;;;7.50;;
37303;SDS011;23188;51.188;16.374;2024-01-30T01:59:51;9.30;;;6.20;;
37303;SDS011;23188;51.188;16.374;2024-01-30T02:03:55;12.60;;;7.00;;
37303;SDS011;23188;51.188;16.374;2024-01-30T02:07:58;14.20;;;8.30;;
37303;SDS011;23188;51.188;16.374;2024-01-30T02:12:02;14.20;;;8.60;;
37303;SDS011;23188;51.188;16.374;2024-01-30T02:16:05;12.30;;;7.60;;
37303;SDS011;23188;51.188;16.374;2024-01-30T02:20:09;14.00;;;6.90;;
37303;SDS011;23188;51.188;16.374;2024-01-30T02:24:12;11.00;;;6.60;;
37303;SDS011;23188;51.188;16.374;2024-01-30T02:28:15;12.00;;;8.20;;
37303;SDS011;23188;51.188;16.374;2024-01-30T02:32:19;12.50;;;8.70;;
37303;SDS011;23188;51.188;16.374;2024-01-30T02:36:22;10.90;;;8.20;;
37303;SDS011;23188;51.188;16.374;2024-01-30T02:40:25;11.30;;;8.50;;
37303;SDS011;23188;51.188;16.374;2024-01-30T02:44:28;13.40;;;7.30;;
37303;SDS011;23188;51.188;16.374;2024-01-30T02:48:31;11.70;;;8.10;;
37303;SDS011;23188;51.188;16.374;2024-01-30T02:52:34;17.00;;;10.00;;
37303;SDS011;23188;51.188;16.374;2024-01-30T02:56:37;44.20;;;29.00;;
37303;SDS011;23188;51.188;16.374;2024-01-30T03:00:41;65.70;;;36.90;;
37303;SDS011;23188;51.188;16.374;2024-01-30T03:04:44;68.50;;;41.70;;
37303;SDS011;23188;51.188;16.374;2024-01-30T03:08:47;105.70;;;61.00;;
37303;SDS011;23188;51.188;16.374;2024-01-30T03:12:50;129.10;;;74.30;;
37303;SDS011;23188;51.188;16.374;2024-01-30T03:16:53;124.10;;;78.90;;
37303;SDS011;23188;51.188;16.374;2024-01-30T03:20:56;129.80;;;77.30;;
37303;SDS011;23188;51.188;16.374;2024-01-30T03:24:59;132.20;;;76.20;;
37303;SDS011;23188;51.188;16.374;2024-01-30T03:29:02;130.30;;;70.40;;
37303;SDS011;23188;51.188;16.374;2024-01-30T03:33:05;112.90;;;104.00;;
37303;SDS011;23188;51.188;16.374;2024-01-30T03:37:08;124.00;;;69.00;;
37303;SDS011;23188;51.188;16.374;2024-01-30T03:41:12;119.90;;;67.00;;
37303;SDS011;23188;51.188;16.374;2024-01-30T03:45:15;97.80;;;64.60;;
37303;SDS011;23188;51.188;16.374;2024-01-30T03:49:18;108.70;;;65.10;;
37303;SDS011;23188;51.188;16.374;2024-01-30T03:53:21;108.10;;;61.20;;
37303;SDS011;23188;51.188;16.374;2024-01-30T03:57:25;103.50;;;61.40;;
37303;SDS011;23188;51.188;16.374;2024-01-30T04:01:28;100.00;;;65.00;;
37303;SDS011;23188;51.188;16.374;2024-01-30T04:05:31;102.20;;;58.80;;
37303;SDS011;23188;51.188;16.374;2024-01-30T04:09:34;85.60;;;53.20;;
37303;SDS011;23188;51.188;16.374;2024-01-30T04:13:37;71.30;;;42.60;;
37303;SDS011;23188;51.188;16.374;2024-01-30T04:17:40;46.30;;;29.50;;
37303;SDS011;23188;51.188;16.374;2024-01-30T04:21:43;27.30;;;17.30;;
37303;SDS011;23188;51.188;16.374;2024-01-30T04:25:47;20.50;;;10.30;;
37303;SDS011;23188;51.188;16.374;2024-01-30T04:29:50;13.70;;;10.90;;
37303;SDS011;23188;51.188;16.374;2024-01-30T04:33:53;14.20;;;11.30;;
37303;SDS011;23188;51.188;16.374;2024-01-30T04:37:56;13.50;;;8.30;;
37303;SDS011;23188;51.188;16.374;2024-01-30T04:41:59;15.70;;;10.90;;
37303;SDS011;23188;51.188;16.374;2024-01-30T04:46:03;12.90;;;9.00;;
37303;SDS011;23188;51.188;16.374;2024-01-30T04:50:07;17.20;;;10.00;;
37303;SDS011;23188;51.188;16.374;2024-01-30T04:54:11;11.90;;;9.90;;
37303;SDS011;23188;51.188;16.374;2024-01-30T04:58:14;17.60;;;10.90;;
37303;SDS011;23188;51.188;16.374;2024-01-30T05:02:17;13.20;;;9.20;;
37303;SDS011;23188;51.188;16.374;2024-01-30T05:06:24;21.90;;;9.90;;
37303;SDS011;23188;51.188;16.374;2024-01-30T05:10:28;12.60;;;9.10;;
37303;SDS011;23188;51.188;16.374;2024-01-30T05:14:32;11.00;;;9.70;;
37303;SDS011;23188;51.188;16.374;2024-01-30T05:18:35;14.90;;;8.70;;
37303;SDS011;23188;51.188;16.374;2024-01-30T05:22:38;13.50;;;7.80;;
37303;SDS011;23188;51.188;16.374;2024-01-30T05:26:47;11.90;;;10.00;;
37303;SDS011;23188;51.188;16.374;2024-01-30T05:30:50;14.90;;;9.60;;
37303;SDS011;23188;51.188;16.374;2024-01-30T05:34:54;16.20;;;9.40;;
37303;SDS011;23188;51.188;16.374;2024-01-30T05:38:57;14.70;;;9.70;;
37303;SDS011;23188;51.188;16.374;2024-01-30T05:43:00;18.30;;;8.30;;
37303;SDS011;23188;51.188;16.374;2024-01-30T05:47:05;13.50;;;8.90;;
37303;SDS011;23188;51.188;16.374;2024-01-30T05:51:08;17.00;;;9.60;;
37303;SDS011;23188;51.188;16.374;2024-01-30T05:55:12;14.00;;;10.80;;
37303;SDS011;23188;51.188;16.374;2024-01-30T05:59:16;14.30;;;10.50;;
37303;SDS011;23188;51.188;16.374;2024-01-30T06:03:19;17.10;;;9.70;;
37303;SDS011;23188;51.188;16.374;2024-01-30T06:07:22;11.70;;;10.30;;
37303;SDS011;23188;51.188;16.374;2024-01-30T06:11:26;11.80;;;8.30;;
37303;SDS011;23188;51.188;16.374;2024-01-30T06:15:29;17.40;;;8.50;;
37303;SDS011;23188;51.188;16.374;2024-01-30T06:19:32;12.60;;;8.90;;
37303;SDS011;23188;51.188;16.374;2024-01-30T06:23:35;11.40;;;7.40;;
37303;SDS011;23188;51.188;16.374;2024-01-30T06:27:39;15.30;;;8.80;;
37303;SDS011;23188;51.188;16.374;2024-01-30T06:31:42;13.30;;;9.10;;
37303;SDS011;23188;51.188;16.374;2024-01-30T06:35:45;26.00;;;15.20;;
37303;SDS011;23188;51.188;16.374;2024-01-30T06:39:48;12.70;;;9.10;;
37303;SDS011;23188;51.188;16.374;2024-01-30T06:43:52;15.80;;;12.40;;
37303;SDS011;23188;51.188;16.374;2024-01-30T06:47:55;20.70;;;10.50;;
37303;SDS011;23188;51.188;16.374;2024-01-30T06:51:58;17.00;;;11.20;;
37303;SDS011;23188;51.188;16.374;2024-01-30T06:56:01;20.10;;;11.10;;
37303;SDS011;23188;51.188;16.374;2024-01-30T07:00:04;14.90;;;11.10;;
37303;SDS011;23188;51.188;16.374;2024-01-30T07:04:08;14.40;;;9.90;;
37303;SDS011;23188;51.188;16.374;2024-01-30T07:08:11;15.90;;;10.80;;
37303;SDS011;23188;51.188;16.374;2024-01-30T07:12:14;18.00;;;11.20;;
37303;SDS011;23188;51.188;16.374;2024-01-30T07:16:17;16.40;;;13.90;;
37303;SDS011;23188;51.188;16.374;2024-01-30T07:20:21;29.80;;;19.30;;
37303;SDS011;23188;51.188;16.374;2024-01-30T07:24:24;28.80;;;21.30;;
37303;SDS011;23188;51.188;16.374;2024-01-30T07:28:27;20.70;;;12.30;;
37303;SDS011;23188;51.188;16.374;2024-01-30T07:32:30;18.70;;;13.40;;
37303;SDS011;23188;51.188;16.374;2024-01-30T07:36:34;13.20;;;10.00;;
37303;SDS011;23188;51.188;16.374;2024-01-30T07:40:37;17.90;;;11.40;;
37303;SDS011;23188;51.188;16.374;2024-01-30T07:44:41;13.60;;;9.20;;
37303;SDS011;23188;51.188;16.374;2024-01-30T07:48:44;17.30;;;9.20;;
37303;SDS011;23188;51.188;16.374;2024-01-30T07:52:47;30.70;;;22.30;;
37303;SDS011;23188;51.188;16.374;2024-01-30T07:56:53;72.10;;;43.30;;
37303;SDS011;23188;51.188;16.374;2024-01-30T08:00:57;69.30;;;48.80;;
37303;SDS011;23188;51.188;16.374;2024-01-30T08:05:01;60.90;;;39.80;;
37303;SDS011;23188;51.188;16.374;2024-01-30T08:09:05;73.70;;;45.90;;
37303;SDS011;23188;51.188;16.374;2024-01-30T08:13:08;66.20;;;45.90;;
37303;SDS011;23188;51.188;16.374;2024-01-30T08:17:12;66.10;;;39.60;;
37303;SDS011;23188;51.188;16.374;2024-01-30T08:21:15;68.50;;;43.30;;
37303;SDS011;23188;51.188;16.374;2024-01-30T08:25:18;68.10;;;38.30;;
37303;SDS011;23188;51.188;16.374;2024-01-30T08:29:21;59.90;;;33.90;;
37303;SDS011;23188;51.188;16.374;2024-01-30T08:33:24;39.80;;;25.50;;
37303;SDS011;23188;51.188;16.374;2024-01-30T08:37:27;22.40;;;12.60;;
37303;SDS011;23188;51.188;16.374;2024-01-30T08:41:31;16.30;;;10.10;;
37303;SDS011;23188;51.188;16.374;2024-01-30T08:45:34;23.00;;;10.50;;
37303;SDS011;23188;51.188;16.374;2024-01-30T08:49:37;14.30;;;9.50;;
37303;SDS011;23188;51.188;16.374;2024-01-30T08:53:40;17.80;;;7.90;;
37303;SDS011;23188;51.188;16.374;2024-01-30T08:57:44;11.30;;;7.80;;
37303;SDS011;23188;51.188;16.374;2024-01-30T09:01:47;13.00;;;7.00;;
37303;SDS011;23188;51.188;16.374;2024-01-30T09:06:08;13.50;;;9.20;;
37303;SDS011;23188;51.188;16.374;2024-01-30T09:10:11;17.80;;;11.10;;
37303;SDS011;23188;51.188;16.374;2024-01-30T09:14:17;12.90;;;11.10;;
37303;SDS011;23188;51.188;16.374;2024-01-30T09:18:20;17.80;;;10.30;;
37303;SDS011;23188;51.188;16.374;2024-01-30T09:22:23;17.00;;;11.70;;
37303;SDS011;23188;51.188;16.374;2024-01-30T09:26:26;18.60;;;9.70;;
37303;SDS011;23188;51.188;16.374;2024-01-30T09:30:29;14.70;;;9.60;;
37303;SDS011;23188;51.188;16.374;2024-01-30T09:34:32;11.40;;;9.20;;
37303;SDS011;23188;51.188;16.374;2024-01-30T09:38:36;16.30;;;11.50;;
37303;SDS011;23188;51.188;16.374;2024-01-30T09:42:39;11.50;;;10.00;;
37303;SDS011;23188;51.188;16.374;2024-01-30T09:46:43;15.20;;;9.70;;
37303;SDS011;23188;51.188;16.374;2024-01-30T09:50:50;15.10;;;9.10;;
37303;SDS011;23188;51.188;16.374;2024-01-30T09:54:55;17.80;;;9.80;;
37303;SDS011;23188;51.188;16.374;2024-01-30T09:58:58;13.30;;;8.90;;
37303;SDS011;23188;51.188;16.374;2024-01-30T10:03:01;18.60;;;10.20;;
37303;SDS011;23188;51.188;16.374;2024-01-30T10:07:05;11.40;;;8.10;;
37303;SDS011;23188;51.188;16.374;2024-01-30T10:11:09;13.90;;;9.00;;
37303;SDS011;23188;51.188;16.374;2024-01-30T10:15:12;11.90;;;8.20;;
37303;SDS011;23188;51.188;16.374;2024-01-30T10:19:16;10.60;;;7.10;;
37303;SDS011;23188;51.188;16.374;2024-01-30T10:23:19;8.80;;;7.40;;
37303;SDS011;23188;51.188;16.374;2024-01-30T10:27:29;12.00;;;7.80;;
37303;SDS011;23188;51.188;16.374;2024-01-30T10:31:32;10.60;;;8.60;;
37303;SDS011;23188;51.188;16.374;2024-01-30T10:35:36;11.60;;;7.60;;
37303;SDS011;23188;51.188;16.374;2024-01-30T10:39:39;10.60;;;7.70;;
37303;SDS011;23188;51.188;16.374;2024-01-30T10:43:44;10.70;;;7.60;;
37303;SDS011;23188;51.188;16.374;2024-01-30T10:47:54;12.10;;;7.40;;
37303;SDS011;23188;51.188;16.374;2024-01-30T10:52:01;14.40;;;8.10;;
37303;SDS011;23188;51.188;16.374;2024-01-30T10:56:06;13.10;;;7.60;;
37303;SDS011;23188;51.188;16.374;2024-01-30T11:00:12;11.20;;;7.70;;
37303;SDS011;23188;51.188;16.374;2024-01-30T11:04:18;17.10;;;8.70;;
37303;SDS011;23188;51.188;16.374;2024-01-30T11:08:22;9.90;;;6.70;;
37303;SDS011;23188;51.188;16.374;2024-01-30T11:12:27;12.10;;;7.70;;
37303;SDS011;23188;51.188;16.374;2024-01-30T11:16:32;10.00;;;6.00;;
37303;SDS011;23188;51.188;16.374;2024-01-30T11:20:35;14.90;;;8.70;;
37303;SDS011;23188;51.188;16.374;2024-01-30T11:24:42;12.60;;;8.40;;
37303;SDS011;23188;51.188;16.374;2024-01-30T11:28:45;12.50;;;7.00;;
37303;SDS011;23188;51.188;16.374;2024-01-30T11:33:00;19.40;;;8.10;;
37303;SDS011;23188;51.188;16.374;2024-01-30T11:37:14;12.70;;;7.00;;
37303;SDS011;23188;51.188;16.374;2024-01-30T11:41:18;10.60;;;7.90;;
37303;SDS011;23188;51.188;16.374;2024-01-30T11:45:21;12.20;;;8.20;;
37303;SDS011;23188;51.188;16.374;2024-01-30T11:49:24;10.20;;;7.10;;
37303;SDS011;23188;51.188;16.374;2024-01-30T11:53:27;13.50;;;8.20;;
37303;SDS011;23188;51.188;16.374;2024-01-30T11:57:31;12.60;;;7.20;;
37303;SDS011;23188;51.188;16.374;2024-01-30T12:01:34;11.70;;;8.20;;
37303;SDS011;23188;51.188;16.374;2024-01-30T12:05:38;11.00;;;7.70;;
37303;SDS011;23188;51.188;16.374;2024-01-30T12:09:52;10.90;;;6.90;;
37303;SDS011;23188;51.188;16.374;2024-01-30T12:13:56;15.10;;;8.60;;
37303;SDS011;23188;51.188;16.374;2024-01-30T12:18:03;15.00;;;9.20;;
37303;SDS011;23188;51.188;16.374;2024-01-30T12:22:10;10.00;;;6.80;;
37303;SDS011;23188;51.188;16.374;2024-01-30T12:26:13;9.60;;;6.80;;
37303;SDS011;23188;51.188;16.374;2024-01-30T12:30:17;11.70;;;8.70;;
37303;SDS011;23188;51.188;16.374;2024-01-30T12:34:24;9.20;;;7.10;;
37303;SDS011;23188;51.188;16.374;2024-01-30T12:38:28;16.70;;;9.20;;
37303;SDS011;23188;51.188;16.374;2024-01-30T12:42:31;17.10;;;8.20;;
37303;SDS011;23188;51.188;16.374;2024-01-30T12:46:34;11.00;;;7.80;;
37303;SDS011;23188;51.188;16.374;2024-01-30T12:50:38;10.10;;;6.60;;
37303;SDS011;23188;51.188;16.374;2024-01-30T12:54:41;13.60;;;8.40;;
37303;SDS011;23188;51.188;16.374;2024-01-30T12:58:44;18.60;;;10.20;;
37303;SDS011;23188;51.188;16.374;2024-01-30T13:02:51;16.90;;;11.30;;
37303;SDS011;23188;51.188;16.374;2024-01-30T13:06:55;12.90;;;8.70;;
37303;SDS011;23188;51.188;16.374;2024-01-30T13:10:58;18.30;;;10.40;;
37303;SDS011;23188;51.188;16.374;2024-01-30T13:15:01;18.60;;;9.80;;
37303;SDS011;23188;51.188;16.374;2024-01-30T13:19:06;23.60;;;12.10;;
37303;SDS011;23188;51.188;16.374;2024-01-30T13:23:09;35.30;;;20.80;;
37303;SDS011;23188;51.188;16.374;2024-01-30T13:27:12;21.00;;;11.20;;
37303;SDS011;23188;51.188;16.374;2024-01-30T13:31:16;16.70;;;10.80;;
37303;SDS011;23188;51.188;16.374;2024-01-30T13:35:19;19.70;;;10.20;;
37303;SDS011;23188;51.188;16.374;2024-01-30T13:39:22;18.40;;;9.40;;
37303;SDS011;23188;51.188;16.374;2024-01-30T13:43:31;14.70;;;9.90;;
37303;SDS011;23188;51.188;16.374;2024-01-30T13:47:35;22.30;;;11.20;;
37303;SDS011;23188;51.188;16.374;2024-01-30T13:51:38;11.30;;;9.80;;
37303;SDS011;23188;51.188;16.374;2024-01-30T13:55:41;16.00;;;9.20;;
37303;SDS011;23188;51.188;16.374;2024-01-30T13:59:44;21.00;;;11.60;;
37303;SDS011;23188;51.188;16.374;2024-01-30T14:03:47;15.20;;;11.40;;
37303;SDS011;23188;51.188;16.374;2024-01-30T14:07:51;19.30;;;11.50;;
37303;SDS011;23188;51.188;16.374;2024-01-30T14:11:54;13.10;;;9.70;;
37303;SDS011;23188;51.188;16.374;2024-01-30T14:15:57;24.20;;;12.50;;
37303;SDS011;23188;51.188;16.374;2024-01-30T14:20:02;22.50;;;12.30;;
37303;SDS011;23188;51.188;16.374;2024-01-30T14:24:07;20.90;;;14.00;;
37303;SDS011;23188;51.188;16.374;2024-01-30T14:28:10;34.00;;;20.00;;
37303;SDS011;23188;51.188;16.374;2024-01-30T14:32:14;27.90;;;16.00;;
37303;SDS011;23188;51.188;16.374;2024-01-30T14:36:17;27.70;;;17.30;;
37303;SDS011;23188;51.188;16.374;2024-01-30T14:40:20;29.50;;;20.20;;
37303;SDS011;23188;51.188;16.374;2024-01-30T14:44:23;28.20;;;20.90;;
37303;SDS011;23188;51.188;16.374;2024-01-30T14:48:26;28.30;;;17.60;;
37303;SDS011;23188;51.188;16.374;2024-01-30T14:52:30;29.70;;;19.30;;
37303;SDS011;23188;51.188;16.374;2024-01-30T14:56:34;24.20;;;17.40;;
37303;SDS011;23188;51.188;16.374;2024-01-30T15:00:37;38.90;;;21.50;;
37303;SDS011;23188;51.188;16.374;2024-01-30T15:04:41;29.90;;;19.40;;
37303;SDS011;23188;51.188;16.374;2024-01-30T15:08:44;35.90;;;20.50;;
37303;SDS011;23188;51.188;16.374;2024-01-30T15:12:48;28.80;;;18.10;;
37303;SDS011;23188;51.188;16.374;2024-01-30T15:16:51;23.30;;;16.00;;
37303;SDS011;23188;51.188;16.374;2024-01-30T15:20:54;21.50;;;15.00;;
37303;SDS011;23188;51.188;16.374;2024-01-30T15:24:57;23.70;;;15.10;;
37303;SDS011;23188;51.188;16.374;2024-01-30T15:29:01;18.40;;;13.90;;
37303;SDS011;23188;51.188;16.374;2024-01-30T15:33:04;23.00;;;14.40;;
37303;SDS011;23188;51.188;16.374;2024-01-30T15:37:08;24.00;;;15.10;;
37303;SDS011;23188;51.188;16.374;2024-01-30T15:41:11;30.50;;;18.70;;
37303;SDS011;23188;51.188;16.374;2024-01-30T15:45:14;50.30;;;31.20;;
37303;SDS011;23188;51.188;16.374;2024-01-30T15:49:18;30.40;;;19.20;;
37303;SDS011;23188;51.188;16.374;2024-01-30T15:53:22;39.10;;;22.90;;
37303;SDS011;23188;51.188;16.374;2024-01-30T15:57:25;35.70;;;23.10;;
37303;SDS011;23188;51.188;16.374;2024-01-30T16:01:31;27.70;;;18.20;;
37303;SDS011;23188;51.188;16.374;2024-01-30T16:05:35;29.60;;;17.20;;
37303;SDS011;23188;51.188;16.374;2024-01-30T16:09:38;21.00;;;15.30;;
37303;SDS011;23188;51.188;16.374;2024-01-30T16:13:41;23.90;;;16.00;;
37303;SDS011;23188;51.188;16.374;2024-01-30T16:17:44;18.40;;;13.10;;
37303;SDS011;23188;51.188;16.374;2024-01-30T16:21:47;28.60;;;18.00;;
37303;SDS011;23188;51.188;16.374;2024-01-30T16:25:51;34.10;;;21.10;;
37303;SDS011;23188;51.188;16.374;2024-01-30T16:29:54;24.20;;;17.00;;
37303;SDS011;23188;51.188;16.374;2024-01-30T16:33:57;21.70;;;15.60;;
37303;SDS011;23188;51.188;16.374;2024-01-30T16:38:02;19.50;;;12.70;;
37303;SDS011;23188;51.188;16.374;2024-01-30T16:42:06;25.20;;;14.10;;
37303;SDS011;23188;51.188;16.374;2024-01-30T16:46:11;24.60;;;16.80;;
37303;SDS011;23188;51.188;16.374;2024-01-30T16:50:15;23.40;;;15.90;;
37303;SDS011;23188;51.188;16.374;2024-01-30T16:54:18;21.90;;;14.80;;
37303;SDS011;23188;51.188;16.374;2024-01-30T16:58:21;23.10;;;14.40;;
37303;SDS011;23188;51.188;16.374;2024-01-30T17:02:24;20.00;;;15.40;;
37303;SDS011;23188;51.188;16.374;2024-01-30T17:06:28;23.60;;;16.20;;
37303;SDS011;23188;51.188;16.374;2024-01-30T17:10:31;26.60;;;15.30;;
37303;SDS011;23188;51.188;16.374;2024-01-30T17:18:42;23.80;;;13.90;;
37303;SDS011;23188;51.188;16.374;2024-01-30T17:22:45;16.60;;;13.80;;
37303;SDS011;23188;51.188;16.374;2024-01-30T17:26:48;26.00;;;17.70;;
37303;SDS011;23188;51.188;16.374;2024-01-30T17:30:52;22.40;;;15.00;;
37303;SDS011;23188;51.188;16.374;2024-01-30T17:34:56;30.40;;;19.70;;
37303;SDS011;23188;51.188;16.374;2024-01-30T17:38:59;51.40;;;29.80;;
37303;SDS011;23188;51.188;16.374;2024-01-30T17:43:06;27.50;;;14.40;;
37303;SDS011;23188;51.188;16.374;2024-01-30T17:47:09;20.30;;;14.60;;
37303;SDS011;23188;51.188;16.374;2024-01-30T17:51:12;22.60;;;14.80;;
37303;SDS011;23188;51.188;16.374;2024-01-30T17:55:15;20.70;;;14.80;;
37303;SDS011;23188;51.188;16.374;2024-01-30T17:59:19;22.60;;;16.10;;
37303;SDS011;23188;51.188;16.374;2024-01-30T18:03:24;26.50;;;15.00;;
37303;SDS011;23188;51.188;16.374;2024-01-30T18:07:27;22.50;;;15.80;;
37303;SDS011;23188;51.188;16.374;2024-01-30T18:11:30;20.60;;;13.90;;
37303;SDS011;23188;51.188;16.374;2024-01-30T18:15:33;25.50;;;15.60;;
37303;SDS011;23188;51.188;16.374;2024-01-30T18:19:37;22.40;;;14.40;;
37303;SDS011;23188;51.188;16.374;2024-01-30T18:23:40;20.40;;;15.20;;
37303;SDS011;23188;51.188;16.374;2024-01-30T18:27:43;23.00;;;15.80;;
37303;SDS011;23188;51.188;16.374;2024-01-30T18:31:46;21.10;;;14.60;;
37303;SDS011;23188;51.188;16.374;2024-01-30T18:35:49;21.90;;;13.50;;
37303;SDS011;23188;51.188;16.374;2024-01-30T18:39:52;18.20;;;13.50;;
37303;SDS011;23188;51.188;16.374;2024-01-30T18:43:55;23.30;;;13.60;;
37303;SDS011;23188;51.188;16.374;2024-01-30T18:47:58;24.20;;;16.50;;
37303;SDS011;23188;51.188;16.374;2024-01-30T18:52:01;20.30;;;13.50;;
37303;SDS011;23188;51.188;16.374;2024-01-30T18:56:07;18.50;;;12.50;;
37303;SDS011;23188;51.188;16.374;2024-01-30T19:00:10;21.50;;;13.80;;
37303;SDS011;23188;51.188;16.374;2024-01-30T19:04:14;23.20;;;15.50;;
37303;SDS011;23188;51.188;16.374;2024-01-30T19:08:17;22.10;;;16.20;;
37303;SDS011;23188;51.188;16.374;2024-01-30T19:12:20;27.20;;;17.50;;
37303;SDS011;23188;51.188;16.374;2024-01-30T19:16:23;24.90;;;15.80;;
37303;SDS011;23188;51.188;16.374;2024-01-30T19:20:26;27.30;;;14.50;;
37303;SDS011;23188;51.188;16.374;2024-01-30T19:24:30;27.60;;;17.10;;
37303;SDS011;23188;51.188;16.374;2024-01-30T19:28:33;28.20;;;17.90;;
37303;SDS011;23188;51.188;16.374;2024-01-30T19:32:36;28.70;;;18.60;;
37303;SDS011;23188;51.188;16.374;2024-01-30T19:36:39;33.20;;;17.40;;
37303;SDS011;23188;51.188;16.374;2024-01-30T19:40:42;29.20;;;17.30;;
37303;SDS011;23188;51.188;16.374;2024-01-30T19:44:45;23.10;;;19.00;;
37303;SDS011;23188;51.188;16.374;2024-01-30T19:48:49;31.20;;;18.90;;
37303;SDS011;23188;51.188;16.374;2024-01-30T19:52:52;26.10;;;18.80;;
37303;SDS011;23188;51.188;16.374;2024-01-30T19:56:55;31.60;;;20.00;;
37303;SDS011;23188;51.188;16.374;2024-01-30T20:00:58;24.30;;;18.50;;
37303;SDS011;23188;51.188;16.374;2024-01-30T20:05:06;19.80;;;16.50;;
37303;SDS011;23188;51.188;16.374;2024-01-30T20:09:09;35.80;;;18.90;;
37303;SDS011;23188;51.188;16.374;2024-01-30T20:13:12;25.30;;;19.20;;
37303;SDS011;23188;51.188;16.374;2024-01-30T20:17:16;25.10;;;17.70;;
37303;SDS011;23188;51.188;16.374;2024-01-30T20:21:19;36.30;;;21.60;;
37303;SDS011;23188;51.188;16.374;2024-01-30T20:25:22;22.90;;;18.60;;
37303;SDS011;23188;51.188;16.374;2024-01-30T20:29:25;29.40;;;18.60;;
37303;SDS011;23188;51.188;16.374;2024-01-30T20:33:28;26.70;;;17.30;;
37303;SDS011;23188;51.188;16.374;2024-01-30T20:37:31;29.50;;;18.50;;
37303;SDS011;23188;51.188;16.374;2024-01-30T20:41:38;35.60;;;21.50;;
37303;SDS011;23188;51.188;16.374;2024-01-30T20:45:41;24.60;;;19.40;;
37303;SDS011;23188;51.188;16.374;2024-01-30T20:49:44;29.80;;;18.10;;
37303;SDS011;23188;51.188;16.374;2024-01-30T20:53:48;27.10;;;18.90;;
37303;SDS011;23188;51.188;16.374;2024-01-30T20:57:51;25.90;;;16.30;;
37303;SDS011;23188;51.188;16.374;2024-01-30T21:01:54;21.00;;;16.20;;
37303;SDS011;23188;51.188;16.374;2024-01-30T21:05:57;32.70;;;18.60;;
37303;SDS011;23188;51.188;16.374;2024-01-30T21:10:01;21.80;;;16.70;;
37303;SDS011;23188;51.188;16.374;2024-01-30T21:14:05;28.20;;;18.80;;
37303;SDS011;23188;51.188;16.374;2024-01-30T21:18:08;25.30;;;17.70;;
37303;SDS011;23188;51.188;16.374;2024-01-30T21:22:12;24.90;;;16.40;;
37303;SDS011;23188;51.188;16.374;2024-01-30T21:26:16;27.80;;;16.50;;
37303;SDS011;23188;51.188;16.374;2024-01-30T21:30:19;23.80;;;17.80;;
37303;SDS011;23188;51.188;16.374;2024-01-30T21:34:22;29.30;;;17.60;;
37303;SDS011;23188;51.188;16.374;2024-01-30T21:38:26;28.20;;;17.90;;
37303;SDS011;23188;51.188;16.374;2024-01-30T21:42:30;21.60;;;16.20;;
37303;SDS011;23188;51.188;16.374;2024-01-30T21:46:33;27.30;;;17.40;;
37303;SDS011;23188;51.188;16.374;2024-01-30T21:50:36;29.10;;;19.00;;
37303;SDS011;23188;51.188;16.374;2024-01-30T21:54:39;25.80;;;17.00;;
37303;SDS011;23188;51.188;16.374;2024-01-30T21:58:42;26.40;;;17.00;;
37303;SDS011;23188;51.188;16.374;2024-01-30T22:02:46;26.70;;;16.70;;
37303;SDS011;23188;51.188;16.374;2024-01-30T22:06:49;27.10;;;18.80;;
37303;SDS011;23188;51.188;16.374;2024-01-30T22:10:52;28.60;;;17.80;;
37303;SDS011;23188;51.188;16.374;2024-01-30T22:14:56;23.20;;;18.10;;
37303;SDS011;23188;51.188;16.374;2024-01-30T22:18:59;29.10;;;16.00;;
37303;SDS011;23188;51.188;16.374;2024-01-30T22:23:02;33.00;;;16.90;;
37303;SDS011;23188;51.188;16.374;2024-01-30T22:27:06;29.40;;;18.70;;
37303;SDS011;23188;51.188;16.374;2024-01-30T22:31:11;26.10;;;16.60;;
37303;SDS011;23188;51.188;16.374;2024-01-30T22:35:14;26.40;;;17.10;;
37303;SDS011;23188;51.188;16.374;2024-01-30T22:39:17;27.40;;;19.80;;
37303;SDS011;23188;51.188;16.374;2024-01-30T22:43:20;30.80;;;17.40;;
37303;SDS011;23188;51.188;16.374;2024-01-30T22:47:24;27.60;;;18.60;;
37303;SDS011;23188;51.188;16.374;2024-01-30T22:51:28;24.40;;;17.40;;
37303;SDS011;23188;51.188;16.374;2024-01-30T22:55:31;32.50;;;19.90;;
37303;SDS011;23188;51.188;16.374;2024-01-30T22:59:34;22.20;;;16.00;;
37303;SDS011;23188;51.188;16.374;2024-01-30T23:03:37;24.70;;;16.90;;
37303;SDS011;23188;51.188;16.374;2024-01-30T23:07:43;22.00;;;17.10;;
37303;SDS011;23188;51.188;16.374;2024-01-30T23:11:49;31.00;;;19.20;;
37303;SDS011;23188;51.188;16.374;2024-01-30T23:15:52;27.00;;;17.40;;
37303;SDS011;23188;51.188;16.374;2024-01-30T23:19:55;22.70;;;16.80;;
37303;SDS011;23188;51.188;16.374;2024-01-30T23:23:59;22.90;;;17.00;;
37303;SDS011;23188;51.188;16.374;2024-01-30T23:28:03;22.30;;;15.90;;
37303;SDS011;23188;51.188;16.374;2024-01-30T23:32:07;22.20;;;16.90;;
37303;SDS011;23188;51.188;16.374;2024-01-30T23:36:11;24.80;;;15.70;;